Time;durP1;ratioP1;P1;durP2;ratioP2;P2;SDS_P1;SDS_P2;PMS_P1;PMS_P2;Temp;Humidity;BMP_temperature;BMP_pressure;BME280_temperature;BME280_humidity;BME280_pressure;Samples;Min_cycle;Max_cycle;Signal;HPM_P1;HPM_P2
2021/10/05 06:47:53;;;;;;;64.03;23.65;;;;;;;9.34;100.00;95203.41;1035190;28;20314;-74
2021/10/05 06:48:23;;;;;;;51.10;23.10;;;;;;;10.02;100.00;95291.94;1032537;28;20890;-75
2021/10/05 06:48:56;;;;;;;58.13;25.00;;;;;;;9.84;100.00;95259.25;1028966;28;20280;-73
2021/10/05 06:49:27;;;;;;;69.82;25.15;;;;;;;9.93;100.00;95275.22;1026543;28;20078;-74
2021/10/05 06:49:58;;;;;;;68.50;26.55;;;;;;;10.11;100.00;95301.59;1020098;29;20331;-74
2021/10/05 06:50:30;;;;;;;64.93;27.67;;;;;;;10.07;100.00;95295.31;1016020;29;20653;-73
2021/10/05 06:51:01;;;;;;;54.42;24.70;;;;;;;10.11;100.00;95298.19;1021243;28;20407;-74
2021/10/05 06:51:31;;;;;;;64.88;26.45;;;;;;;10.10;100.00;95302.66;1023057;28;20835;-74
2021/10/05 06:52:02;;;;;;;61.72;25.85;;;;;;;10.11;100.00;95291.09;1022828;28;20030;-74
2021/10/05 06:52:33;;;;;;;77.07;28.55;;;;;;;10.06;100.00;95288.50;1019303;29;20023;-74
2021/10/05 06:53:06;;;;;;;60.67;24.80;;;;;;;10.06;100.00;95280.66;1025831;28;20297;-74
2021/10/05 06:53:37;;;;;;;45.78;22.08;;;;;;;10.08;100.00;95298.72;1024041;28;20019;-76
2021/10/05 06:54:07;;;;;;;54.45;23.38;;;;;;;10.14;100.00;95300.25;1022854;28;20267;-75
2021/10/05 06:54:38;;;;;;;47.00;22.80;;;;;;;9.99;100.00;95280.13;1027105;28;20062;-76
2021/10/05 06:55:09;;;;;;;49.38;23.13;;;;;;;9.98;100.00;95286.44;1026689;28;20079;-74
2021/10/05 06:55:39;;;;;;;61.65;25.38;;;;;;;10.05;100.00;95300.03;1022355;28;20019;-74
2021/10/05 06:56:10;;;;;;;119.15;27.75;;;;;;;9.99;100.00;95287.22;1020203;29;20911;-74
2021/10/05 06:56:40;;;;;;;57.13;24.80;;;;;;;10.13;100.00;95302.09;1022645;28;20067;-74
2021/10/05 06:57:11;;;;;;;52.60;24.27;;;;;;;10.01;100.00;95282.50;1025921;28;20023;-74
2021/10/05 06:57:45;;;;;;;48.55;24.30;;;;;;;10.14;100.00;95295.81;1025288;28;20090;-75
2021/10/05 06:58:15;;;;;;;63.35;25.55;;;;;;;10.11;100.00;95291.09;1018649;29;20059;-76
2021/10/05 06:58:46;;;;;;;52.97;24.23;;;;;;;10.12;100.00;95281.38;1014761;29;20324;-74
2021/10/05 06:59:16;;;;;;;40.03;21.73;;;;;;;10.17;100.00;95293.72;1016335;29;20036;-74
2021/10/05 06:59:47;;;;;;;45.08;21.00;;;;;;;10.10;100.00;95300.03;1014780;29;20016;-74
2021/10/05 07:00:18;;;;;;;53.35;24.02;;;;;;;10.14;100.00;95308.91;1014461;29;20051;-74
2021/10/05 07:00:48;;;;;;;67.05;26.13;;;;;;;10.12;100.00;95305.75;1022532;28;20030;-75
2021/10/05 07:01:19;;;;;;;53.50;23.17;;;;;;;10.08;100.00;95296.88;1026668;28;20038;-76
2021/10/05 07:01:49;;;;;;;51.22;22.90;;;;;;;10.19;100.00;95307.31;1018161;29;20156;-74
2021/10/05 07:02:20;;;;;;;38.67;20.98;;;;;;;10.20;100.00;95303.66;1019975;29;20099;-74
2021/10/05 07:02:51;;;;;;;53.33;24.55;;;;;;;10.09;100.00;95306.31;1021186;28;20118;-74
2021/10/05 07:03:21;;;;;;;54.35;23.55;;;;;;;10.17;100.00;95322.53;1018792;29;20023;-74
2021/10/05 07:03:52;;;;;;;51.05;22.02;;;;;;;10.14;100.00;95322.00;1018484;29;20020;-74
2021/10/05 07:04:22;;;;;;;47.72;21.90;;;;;;;10.22;100.00;95320.66;1016556;29;20032;-74
2021/10/05 07:04:53;;;;;;;56.28;23.67;;;;;;;10.21;100.00;95323.56;1022500;28;20449;-74
2021/10/05 07:05:27;;;;;;;46.72;21.73;;;;;;;10.10;100.00;95315.75;1026560;28;20061;-76
2021/10/05 07:05:57;;;;;;;41.90;19.92;;;;;;;10.12;100.00;95324.13;1018680;29;20263;-74
2021/10/05 07:06:28;;;;;;;38.75;20.63;;;;;;;10.13;100.00;95323.09;1018660;28;20393;-74
2021/10/05 07:06:58;;;;;;;46.42;22.02;;;;;;;10.12;100.00;95329.34;1026462;28;20023;-74
2021/10/05 07:07:29;;;;;;;61.55;25.23;;;;;;;10.14;100.00;95326.47;1014619;29;20514;-74
2021/10/05 07:08:03;;;;;;;45.03;21.92;;;;;;;10.07;100.00;95310.25;1010546;29;20025;-75
2021/10/05 07:08:33;;;;;;;46.67;21.55;;;;;;;10.06;100.00;95319.16;1015309;29;20008;-74
2021/10/05 07:09:04;;;;;;;59.47;24.35;;;;;;;10.01;100.00;95312.13;1019028;29;20267;-74
2021/10/05 07:09:35;;;;;;;61.83;24.00;;;;;;;10.08;100.00;95314.44;1022375;29;20565;-75
2021/10/05 07:10:06;;;;;;;50.63;22.15;;;;;;;10.15;100.00;95318.34;1022526;29;20569;-74
2021/10/05 07:10:38;;;;;;;79.95;26.83;;;;;;;10.24;100.00;95326.44;1018187;29;20102;-74
2021/10/05 07:11:08;;;;;;;41.63;21.13;;;;;;;10.20;100.00;95316.75;1022655;29;20642;-74
2021/10/05 07:11:39;;;;;;;45.15;21.67;;;;;;;9.99;100.00;95303.72;1017038;29;20291;-74
2021/10/05 07:12:09;;;;;;;52.50;21.50;;;;;;;10.24;100.00;95331.69;1026275;28;20261;-74
2021/10/05 07:12:40;;;;;;;60.03;23.15;;;;;;;10.20;100.00;95322.00;1022494;29;20043;-74
2021/10/05 07:13:10;;;;;;;70.10;25.50;;;;;;;10.17;100.00;95333.03;1016108;29;20514;-74
2021/10/05 07:13:41;;;;;;;52.35;24.08;;;;;;;9.99;100.00;95306.34;1026465;28;20034;-74
2021/10/05 07:14:11;;;;;;;64.95;25.50;;;;;;;10.14;100.00;95326.47;1029821;28;20392;-74
2021/10/05 07:14:42;;;;;;;62.25;24.02;;;;;;;10.24;100.00;95336.13;1025388;28;20031;-75
2021/10/05 07:15:13;;;;;;;47.35;23.13;;;;;;;10.24;100.00;95341.38;1022850;28;20175;-74
2021/10/05 07:15:44;;;;;;;51.58;23.48;;;;;;;10.21;100.00;95331.44;1020361;29;20031;-74
2021/10/05 07:16:14;;;;;;;42.17;20.55;;;;;;;10.29;100.00;95344.00;1025610;28;20266;-73
2021/10/05 07:16:45;;;;;;;58.83;23.85;;;;;;;10.28;100.00;95340.59;1018800;29;20031;-76
2021/10/05 07:17:18;;;;;;;49.25;21.38;;;;;;;10.27;100.00;95330.38;1025804;28;20409;-74
2021/10/05 07:17:55;;;;;;;56.90;24.05;;;;;;;10.18;100.00;95330.13;1026428;28;20288;-73
2021/10/05 07:18:26;;;;;;;51.20;23.98;;;;;;;10.31;100.00;95334.03;1021951;28;20409;-73
2021/10/05 07:18:57;;;;;;;58.55;24.48;;;;;;;10.24;100.00;95326.44;1016109;29;20342;-74
2021/10/05 07:19:28;;;;;;;46.90;21.73;;;;;;;10.27;100.00;95335.63;1016441;29;20962;-73
2021/10/05 07:19:58;;;;;;;58.30;24.27;;;;;;;10.31;100.00;95332.19;1014872;29;20109;-75
2021/10/05 07:20:30;;;;;;;69.53;25.08;;;;;;;10.33;100.00;95330.09;1018028;29;20012;-74
2021/10/05 07:21:00;;;;;;;54.78;23.08;;;;;;;10.32;100.00;95338.22;1022513;28;20054;-74
2021/10/05 07:21:31;;;;;;;40.47;19.23;;;;;;;10.27;100.00;95333.00;1019675;29;20275;-74
2021/10/05 07:22:02;;;;;;;45.13;21.15;;;;;;;10.13;100.00;95317.84;1022118;29;20030;-74
2021/10/05 07:22:35;;;;;;;56.95;23.88;;;;;;;10.21;100.00;95318.31;1016281;29;20410;-74
2021/10/05 07:23:05;;;;;;;45.03;21.98;;;;;;;10.23;100.00;95329.31;1020395;28;20255;-74
2021/10/05 07:23:36;;;;;;;48.67;23.17;;;;;;;10.20;100.00;95325.41;1025911;28;20034;-75
2021/10/05 07:24:06;;;;;;;39.30;21.27;;;;;;;10.20;100.00;95319.38;1026340;28;20078;-77
2021/10/05 07:24:37;;;;;;;59.00;24.55;;;;;;;10.22;100.00;95333.78;1016265;29;20018;-74
2021/10/05 07:25:07;;;;;;;43.20;21.75;;;;;;;10.21;100.00;95326.97;1026436;28;20023;-77
2021/10/05 07:25:38;;;;;;;48.40;22.33;;;;;;;10.19;100.00;95328.28;1022379;29;20082;-79
2021/10/05 07:26:08;;;;;;;43.75;21.42;;;;;;;10.28;100.00;95334.56;1014319;29;20031;-74
2021/10/05 07:26:39;;;;;;;39.38;21.15;;;;;;;10.04;100.00;95311.56;1014205;29;20050;-75
2021/10/05 07:27:09;;;;;;;44.92;21.38;;;;;;;10.23;100.00;95342.41;1014446;29;20028;-74
2021/10/05 07:27:40;;;;;;;46.70;22.33;;;;;;;10.01;100.00;95317.34;1022222;29;20023;-74
2021/10/05 07:28:11;;;;;;;33.83;19.38;;;;;;;10.17;100.00;95343.53;1029795;28;20052;-74
2021/10/05 07:28:41;;;;;;;40.10;20.10;;;;;;;10.11;100.00;95337.50;1025273;28;20015;-74
2021/10/05 07:29:14;;;;;;;39.25;20.02;;;;;;;10.10;100.00;95335.94;1018300;29;20103;-76
2021/10/05 07:29:44;;;;;;;37.72;21.23;;;;;;;10.13;100.00;95346.69;1025126;28;20099;-75
2021/10/05 07:30:14;;;;;;;42.38;22.15;;;;;;;10.15;100.00;95352.41;1029080;28;20764;-75
2021/10/05 07:30:46;;;;;;;51.35;24.08;;;;;;;10.07;100.00;95326.00;1012339;29;20029;-76
2021/10/05 07:31:16;;;;;;;67.82;25.75;;;;;;;10.23;100.00;95347.66;1016950;29;20401;-76
2021/10/05 07:31:47;;;;;;;50.55;24.35;;;;;;;10.26;100.00;95355.03;1014419;29;20277;-76
2021/10/05 07:32:17;;;;;;;54.15;23.52;;;;;;;10.27;100.00;95346.13;1019996;28;20397;-76
2021/10/05 07:32:49;;;;;;;44.65;22.02;;;;;;;10.10;100.00;95317.59;1018285;29;20024;-78
2021/10/05 07:33:23;;;;;;;44.30;21.60;;;;;;;10.25;100.00;95342.94;1014240;29;20454;-77
2021/10/05 07:33:54;;;;;;;56.58;24.73;;;;;;;10.10;100.00;95314.97;1021261;29;20271;-77
2021/10/05 07:34:24;;;;;;;45.53;22.25;;;;;;;10.28;100.00;95342.44;1021584;29;20314;-77
2021/10/05 07:34:55;;;;;;;55.42;24.45;;;;;;;10.27;100.00;95341.66;1022898;28;20027;-75
2021/10/05 07:35:25;;;;;;;47.20;22.52;;;;;;;10.22;100.00;95333.00;1018315;29;20027;-76
2021/10/05 07:35:56;;;;;;;52.85;23.52;;;;;;;10.19;100.00;95329.06;1019210;29;20565;-76
2021/10/05 07:36:26;;;;;;;41.95;21.38;;;;;;;10.32;100.00;95348.69;1023551;28;20513;-78
2021/10/05 07:36:57;;;;;;;53.47;23.52;;;;;;;10.31;100.00;95339.28;1023580;28;20110;-78
2021/10/05 07:37:27;;;;;;;48.80;22.55;;;;;;;10.21;100.00;95334.84;1029614;28;20050;-77
2021/10/05 07:37:58;;;;;;;41.67;22.30;;;;;;;10.24;100.00;95331.69;1029228;28;20055;-75
2021/10/05 07:38:29;;;;;;;35.72;19.15;;;;;;;10.26;100.00;95339.28;1025855;28;20244;-76
2021/10/05 07:38:59;;;;;;;40.47;21.02;;;;;;;10.21;100.00;95331.44;1021769;29;20032;-75
2021/10/05 07:39:29;;;;;;;39.95;20.02;;;;;;;10.35;100.00;95342.91;1022284;28;20524;-73
2021/10/05 07:40:00;;;;;;;49.65;21.42;;;;;;;10.29;100.00;95338.75;1023580;28;20069;-76
2021/10/05 07:40:31;;;;;;;41.33;21.25;;;;;;;10.28;100.00;95334.56;1022345;29;20019;-77
2021/10/05 07:41:01;;;;;;;44.22;20.65;;;;;;;10.29;100.00;95344.78;1017949;29;20028;-76
2021/10/05 07:41:31;;;;;;;32.58;18.88;;;;;;;10.13;100.00;95324.94;1024351;28;20031;-77
2021/10/05 07:42:02;;;;;;;35.22;18.20;;;;;;;10.25;100.00;95342.94;1017742;29;20023;-73
2021/10/05 07:42:33;;;;;;;30.13;18.00;;;;;;;10.20;100.00;95340.38;1018126;29;20028;-73
2021/10/05 07:43:03;;;;;;;40.30;20.10;;;;;;;10.21;100.00;95334.84;1009668;29;20597;-75
2021/10/05 07:43:34;;;;;;;39.42;20.80;;;;;;;10.25;100.00;95337.69;1012624;29;20076;-75
2021/10/05 07:44:04;;;;;;;40.63;19.77;;;;;;;10.25;100.00;95345.56;1010258;29;20049;-77
2021/10/05 07:44:35;;;;;;;45.08;21.80;;;;;;;10.29;100.00;95344.00;1015665;29;20036;-75
2021/10/05 07:45:05;;;;;;;44.30;20.83;;;;;;;10.28;100.00;95339.81;1014489;29;20048;-76
2021/10/05 07:45:37;;;;;;;43.33;21.83;;;;;;;10.21;100.00;95334.06;1025980;28;20022;-76
2021/10/05 07:46:08;;;;;;;42.65;20.90;;;;;;;10.29;100.00;95346.63;1026176;28;20046;-76
2021/10/05 07:46:38;;;;;;;40.53;20.60;;;;;;;10.35;100.00;95348.16;1010454;29;20272;-75
2021/10/05 07:47:09;;;;;;;41.92;21.08;;;;;;;10.28;100.00;95331.94;1014456;29;20119;-76
2021/10/05 07:47:39;;;;;;;47.47;20.33;;;;;;;10.31;100.00;95337.44;1024081;28;20101;-76
2021/10/05 07:48:10;;;;;;;33.20;19.67;;;;;;;10.33;100.00;95334.56;1023191;28;20473;-76
2021/10/05 07:48:43;;;;;;;39.10;20.25;;;;;;;10.31;100.00;95336.66;1018092;29;20895;-77
2021/10/05 07:49:14;;;;;;;43.28;20.30;;;;;;;10.36;100.00;95336.63;1018781;29;20599;-78
2021/10/05 07:49:44;;;;;;;36.17;19.10;;;;;;;10.35;100.00;95348.16;1017484;28;20279;-76
2021/10/05 07:50:15;;;;;;;32.78;18.98;;;;;;;10.39;100.00;95349.19;1022248;28;20026;-76
2021/10/05 07:50:45;;;;;;;37.42;19.45;;;;;;;10.30;100.00;95341.13;1023021;28;20030;-75
2021/10/05 07:51:16;;;;;;;36.03;20.45;;;;;;;10.37;100.00;95346.06;1026184;28;20034;-75
2021/10/05 07:51:48;;;;;;;35.47;19.80;;;;;;;10.38;100.00;95366.78;1014324;29;20052;-76
2021/10/05 07:52:19;;;;;;;39.78;20.23;;;;;;;10.21;100.00;95336.69;1010208;29;20826;-75
2021/10/05 07:52:49;;;;;;;39.65;20.70;;;;;;;10.36;100.00;95357.59;1017955;29;20059;-77
2021/10/05 07:53:20;;;;;;;45.05;21.90;;;;;;;10.38;100.00;95356.28;1016372;29;20024;-75
2021/10/05 07:53:50;;;;;;;47.67;23.20;;;;;;;10.24;100.00;95336.13;1018167;29;20060;-77
2021/10/05 07:54:21;;;;;;;38.72;20.52;;;;;;;10.35;100.00;95364.69;1019825;28;20114;-77
2021/10/05 07:54:52;;;;;;;46.53;21.45;;;;;;;10.27;100.00;95346.91;1026327;28;20031;-76
2021/10/05 07:55:22;;;;;;;46.97;22.15;;;;;;;10.33;100.00;95353.69;1022439;29;20034;-76
2021/10/05 07:55:53;;;;;;;44.90;21.38;;;;;;;10.35;100.00;95366.53;1017194;29;20027;-75
2021/10/05 07:56:23;;;;;;;36.85;20.75;;;;;;;10.33;100.00;95363.41;1013571;29;20505;-75
2021/10/05 07:56:53;;;;;;;47.72;22.90;;;;;;;10.37;100.00;95362.59;1017411;29;20083;-75
2021/10/05 07:57:24;;;;;;;32.45;19.45;;;;;;;10.39;100.00;95359.69;1014448;29;20047;-77
2021/10/05 07:57:55;;;;;;;35.72;20.23;;;;;;;10.17;100.00;95338.28;1009916;29;20045;-76
2021/10/05 07:58:25;;;;;;;35.38;20.95;;;;;;;10.36;100.00;95361.03;1026215;28;20094;-76
2021/10/05 07:58:56;;;;;;;40.20;21.88;;;;;;;10.22;100.00;95328.53;1018117;29;20290;-76
2021/10/05 07:59:26;;;;;;;42.58;21.95;;;;;;;10.38;100.00;95364.16;1013369;29;20744;-75
2021/10/05 07:59:57;;;;;;;36.45;21.67;;;;;;;10.41;100.00;95354.19;1013698;29;20059;-76
2021/10/05 08:00:27;;;;;;;38.72;20.15;;;;;;;10.34;100.00;95352.63;1014131;29;20091;-76
2021/10/05 08:00:58;;;;;;;33.75;18.85;;;;;;;10.38;100.00;95347.63;1024700;28;20022;-76
2021/10/05 08:01:28;;;;;;;33.80;19.92;;;;;;;10.42;100.00;95348.66;1021763;29;20102;-76
2021/10/05 08:01:59;;;;;;;31.23;19.15;;;;;;;10.53;100.00;95358.06;1019735;29;20662;-76
2021/10/05 08:02:30;;;;;;;34.25;18.88;;;;;;;10.56;100.00;95354.88;1026296;28;20030;-76
2021/10/05 08:03:01;;;;;;;40.22;20.90;;;;;;;10.52;100.00;95348.59;1024450;28;20427;-76
2021/10/05 08:03:31;;;;;;;33.70;19.83;;;;;;;10.53;100.00;95359.88;1025068;28;20038;-76
2021/10/05 08:04:04;;;;;;;37.38;19.80;;;;;;;10.49;100.00;95343.88;1018690;29;20478;-76
2021/10/05 08:04:35;;;;;;;33.22;19.25;;;;;;;10.46;100.00;95346.28;1014523;29;20035;-75
2021/10/05 08:05:06;;;;;;;36.53;20.40;;;;;;;10.37;100.00;95340.81;1019285;29;20316;-78
2021/10/05 08:05:37;;;;;;;33.22;19.05;;;;;;;10.48;100.00;95363.31;1022011;29;20031;-77
2021/10/05 08:06:08;;;;;;;40.33;20.95;;;;;;;10.46;100.00;95347.06;1014552;29;20379;-76
2021/10/05 08:06:38;;;;;;;32.45;19.48;;;;;;;10.50;100.00;95363.84;1020652;28;20270;-77
2021/10/05 08:07:09;;;;;;;28.48;18.85;;;;;;;10.52;100.00;95359.09;1022286;28;20580;-74
2021/10/05 08:07:39;;;;;;;28.85;17.58;;;;;;;10.48;100.00;95358.06;1022254;29;20319;-77
2021/10/05 08:08:10;;;;;;;28.27;18.50;;;;;;;10.44;100.00;95353.63;1016854;29;20024;-77
2021/10/05 08:08:40;;;;;;;36.20;20.15;;;;;;;10.52;100.00;95353.06;1014280;29;20020;-76
2021/10/05 08:09:13;;;;;;;28.48;18.77;;;;;;;10.28;100.00;95319.63;1018820;29;20039;-76
2021/10/05 08:09:44;;;;;;;30.77;18.70;;;;;;;10.61;100.00;95356.69;1018295;29;20051;-76
2021/10/05 08:10:14;;;;;;;28.73;16.92;;;;;;;10.54;100.00;95351.75;1018087;29;20730;-78
2021/10/05 08:10:45;;;;;;;26.30;17.67;;;;;;;10.43;100.00;95358.09;1021061;28;20039;-76
2021/10/05 08:11:16;;;;;;;23.77;16.77;;;;;;;10.29;100.00;95326.41;1017942;29;20312;-76
2021/10/05 08:11:47;;;;;;;29.85;18.15;;;;;;;10.49;100.00;95354.38;1019202;29;20724;-75
2021/10/05 08:12:17;;;;;;;28.30;18.25;;;;;;;10.46;100.00;95347.06;1025681;28;20258;-75
2021/10/05 08:12:48;;;;;;;30.88;18.00;;;;;;;10.43;100.00;95339.75;1007759;29;20495;-76
2021/10/05 08:13:19;;;;;;;40.10;20.17;;;;;;;10.52;100.00;95355.69;1015733;29;20012;-76
2021/10/05 08:13:52;;;;;;;32.60;19.92;;;;;;;10.49;100.00;95343.88;1022501;28;20101;-74
2021/10/05 08:14:22;;;;;;;30.20;18.58;;;;;;;10.32;100.00;95328.50;1014107;29;20027;-77
2021/10/05 08:14:53;;;;;;;29.00;18.60;;;;;;;10.40;100.00;95334.25;1023870;28;20307;-75
2021/10/05 08:15:23;;;;;;;29.83;18.20;;;;;;;10.46;100.00;95351.50;1021893;29;20016;-74
2021/10/05 08:15:54;;;;;;;26.17;17.70;;;;;;;10.34;100.00;95344.75;1013693;29;20035;-77
2021/10/05 08:16:30;;;;;;;33.40;19.27;;;;;;;10.54;100.00;95354.38;1018238;29;20063;-73
2021/10/05 08:17:01;;;;;;;32.58;19.70;;;;;;;10.50;100.00;95345.47;1017880;29;20167;-73
2021/10/05 08:17:31;;;;;;;26.08;17.65;;;;;;;10.58;100.00;95360.63;1018245;29;20781;-77
2021/10/05 08:18:02;;;;;;;27.85;18.20;;;;;;;10.51;100.00;95347.03;1018254;29;20046;-77
2021/10/05 08:18:32;;;;;;;23.98;16.15;;;;;;;10.57;100.00;95355.66;1018167;29;20079;-77
2021/10/05 08:19:03;;;;;;;100.10;22.75;;;;;;;10.60;100.00;95357.75;1018263;29;20056;-76
2021/10/05 08:19:33;;;;;;;33.20;20.00;;;;;;;10.48;100.00;95329.22;1010480;29;20459;-76
2021/10/05 08:20:05;;;;;;;34.13;19.70;;;;;;;10.60;100.00;95345.41;1014348;29;20501;-75
2021/10/05 08:20:35;;;;;;;28.23;18.10;;;;;;;10.60;100.00;95345.41;1014235;29;20020;-76
2021/10/05 08:21:05;;;;;;;25.95;17.52;;;;;;;10.53;100.00;95350.19;1018338;28;20263;-76
2021/10/05 08:21:36;;;;;;;32.70;19.63;;;;;;;10.54;100.00;95346.50;1025943;28;20033;-76
2021/10/05 08:22:06;;;;;;;34.38;19.30;;;;;;;10.44;100.00;95332.66;1022318;28;20535;-74
2021/10/05 08:22:37;;;;;;;27.13;17.73;;;;;;;10.56;100.00;95339.16;1013669;29;20028;-76
2021/10/05 08:23:08;;;;;;;26.73;17.75;;;;;;;10.58;100.00;95341.47;1018276;29;20106;-76
2021/10/05 08:23:38;;;;;;;37.45;19.88;;;;;;;10.52;100.00;95345.19;1015832;29;20012;-78
2021/10/05 08:24:09;;;;;;;30.90;18.85;;;;;;;10.37;100.00;95311.97;1018522;29;20023;-76
2021/10/05 08:24:39;;;;;;;28.83;18.60;;;;;;;10.54;100.00;95330.75;1014942;29;20088;-78
2021/10/05 08:25:10;;;;;;;32.30;19.55;;;;;;;10.48;100.00;95331.84;1010387;29;20056;-77
2021/10/05 08:25:43;;;;;;;35.15;21.02;;;;;;;10.55;100.00;95336.78;1018506;29;20565;-75
2021/10/05 08:26:13;;;;;;;33.58;20.80;;;;;;;10.51;100.00;95320.81;1018606;29;20372;-76
2021/10/05 08:26:44;;;;;;;30.98;19.38;;;;;;;10.61;100.00;95333.84;1018808;29;20812;-76
2021/10/05 08:27:14;;;;;;;31.00;20.00;;;;;;;10.56;100.00;95338.34;1022145;29;20018;-79
2021/10/05 08:27:46;;;;;;;31.33;20.17;;;;;;;10.57;100.00;95345.94;1021727;28;20433;-76
2021/10/05 08:28:17;;;;;;;32.17;21.80;;;;;;;10.43;100.00;95331.06;1014297;29;20088;-75
2021/10/05 08:28:47;;;;;;;34.47;20.45;;;;;;;10.54;100.00;95351.75;1020082;29;20282;-78
2021/10/05 08:29:18;;;;;;;30.15;20.45;;;;;;;10.39;100.00;95317.72;1025934;28;20473;-76
2021/10/05 08:29:49;;;;;;;38.75;22.33;;;;;;;10.39;100.00;95322.97;1022688;29;20016;-77
2021/10/05 08:30:19;;;;;;;31.02;19.98;;;;;;;10.49;100.00;95337.84;1017074;29;20051;-77
2021/10/05 08:30:50;;;;;;;29.42;20.00;;;;;;;10.61;100.00;95352.22;1018614;29;20140;-76
2021/10/05 08:31:20;;;;;;;34.00;20.10;;;;;;;10.55;100.00;95355.91;1022129;28;20083;-76
2021/10/05 08:31:51;;;;;;;36.97;21.70;;;;;;;10.46;100.00;95354.94;1014476;29;20028;-77
2021/10/05 08:32:24;;;;;;;34.00;20.70;;;;;;;10.56;100.00;95352.25;1006968;29;20388;-75
2021/10/05 08:32:55;;;;;;;37.22;22.48;;;;;;;10.61;100.00;95351.44;1018429;29;20303;-77
2021/10/05 08:33:25;;;;;;;36.90;22.83;;;;;;;10.43;100.00;95313.53;1026293;28;20041;-77
2021/10/05 08:33:56;;;;;;;32.00;21.55;;;;;;;10.66;100.00;95340.91;1018184;29;20024;-79
2021/10/05 08:34:26;;;;;;;36.17;22.52;;;;;;;10.51;100.00;95330.50;1014507;29;20559;-78
2021/10/05 08:34:59;;;;;;;39.28;22.95;;;;;;;10.57;100.00;95340.72;1024210;28;20520;-75
2021/10/05 08:35:30;;;;;;;40.08;23.08;;;;;;;10.55;100.00;95331.53;1022266;28;20394;-76
2021/10/05 08:36:00;;;;;;;40.03;24.02;;;;;;;10.48;100.00;95316.09;1014210;29;20276;-78
2021/10/05 08:36:31;;;;;;;45.75;26.08;;;;;;;10.59;100.00;95322.06;1026202;28;20091;-76
2021/10/05 08:37:01;;;;;;;43.92;25.25;;;;;;;10.72;100.00;95325.91;1021928;29;20485;-76
2021/10/05 08:37:32;;;;;;;37.55;23.65;;;;;;;10.78;100.00;95322.19;1016186;29;20057;-78
2021/10/05 08:38:05;;;;;;;29.92;21.60;;;;;;;10.78;100.00;95320.34;1017763;29;20047;-77
2021/10/05 08:38:36;;;;;;;38.22;23.45;;;;;;;10.86;100.00;95321.59;1019024;29;20020;-78
2021/10/05 08:39:06;;;;;;;38.22;22.35;;;;;;;10.94;100.00;95313.16;1015392;29;20296;-77
2021/10/05 08:39:37;;;;;;;30.55;20.80;;;;;;;10.93;100.00;95321.28;1014831;29;20272;-78
2021/10/05 08:40:09;;;;;;;30.13;20.60;;;;;;;11.00;100.00;95317.31;1014503;29;20057;-78
2021/10/05 08:40:39;;;;;;;30.13;20.17;;;;;;;11.09;100.00;95317.50;1013245;29;20383;-76
2021/10/05 08:41:10;;;;;;;30.40;19.75;;;;;;;10.98;100.00;95287.91;1014871;29;20272;-76
2021/10/05 08:41:46;;;;;;;38.88;22.63;;;;;;;11.20;100.00;95305.84;1022203;29;20688;-77
2021/10/05 08:42:22;;;;;;;34.10;21.30;;;;;;;11.24;100.00;95308.72;1022413;28;20586;-77
2021/10/05 08:42:52;;;;;;;30.77;20.35;;;;;;;11.16;100.00;95304.03;1011098;29;20273;-77
2021/10/05 08:43:23;;;;;;;28.65;19.77;;;;;;;11.17;100.00;95289.88;1009699;29;20795;-78
2021/10/05 08:43:54;;;;;;;27.95;19.27;;;;;;;11.22;100.00;95303.72;1019868;28;20024;-75
2021/10/05 08:44:25;;;;;;;30.92;22.08;;;;;;;11.35;100.00;95298.88;1020279;29;20059;-74
2021/10/05 08:44:58;;;;;;;30.30;19.80;;;;;;;11.23;100.00;95302.69;1010125;29;20025;-74
2021/10/05 08:45:29;;;;;;;32.20;20.95;;;;;;;11.22;100.00;95295.06;1021350;28;20636;-75
2021/10/05 08:46:00;;;;;;;32.97;20.73;;;;;;;11.21;100.00;95296.13;1022426;28;20274;-76
2021/10/05 08:46:35;;;;;;;28.80;18.98;;;;;;;11.05;100.00;95272.63;1014811;29;20460;-77
2021/10/05 08:47:06;;;;;;;30.25;19.70;;;;;;;11.26;100.00;95299.47;1014698;29;20718;-77
2021/10/05 08:47:36;;;;;;;22.23;16.85;;;;;;;11.19;100.00;95292.97;1017126;29;20296;-76
2021/10/05 08:48:07;;;;;;;30.58;20.58;;;;;;;11.15;100.00;95279.63;1021884;28;20327;-78
2021/10/05 08:48:37;;;;;;;26.95;19.15;;;;;;;11.14;100.00;95277.28;1025633;28;20054;-77
2021/10/05 08:49:08;;;;;;;32.22;19.88;;;;;;;11.30;100.00;95299.69;1022373;28;20463;-76
2021/10/05 08:49:38;;;;;;;25.02;18.05;;;;;;;11.31;100.00;95285.53;1014144;29;20309;-76
2021/10/05 08:50:09;;;;;;;27.35;18.92;;;;;;;11.28;100.00;95286.84;1017967;29;20095;-78
2021/10/05 08:50:40;;;;;;;27.92;18.88;;;;;;;11.27;100.00;95301.06;1014618;29;20012;-75
2021/10/05 08:51:11;;;;;;;28.73;19.38;;;;;;;11.25;100.00;95284.00;1010149;29;20047;-76
2021/10/05 08:51:41;;;;;;;31.58;21.08;;;;;;;11.42;100.00;95296.72;1007970;29;20426;-76
2021/10/05 08:52:12;;;;;;;22.50;16.70;;;;;;;11.45;100.00;95296.94;1017840;29;20031;-77
2021/10/05 08:52:44;;;;;;;21.73;16.25;;;;;;;11.53;100.00;95309.44;1023428;28;20043;-77
2021/10/05 08:53:14;;;;;;;27.33;18.83;;;;;;;11.55;100.00;95290.78;1025169;28;20582;-75
2021/10/05 08:53:45;;;;;;;28.88;18.52;;;;;;;11.35;100.00;95262.88;1008221;29;20266;-77
2021/10/05 08:54:15;;;;;;;31.48;19.40;;;;;;;11.47;100.00;95273.03;1018133;29;20051;-76
2021/10/05 08:54:46;;;;;;;28.50;18.83;;;;;;;11.59;100.00;95306.78;1025789;28;20134;-77
2021/10/05 08:55:16;;;;;;;23.92;16.45;;;;;;;11.51;100.00;95305.56;1025769;28;20057;-75
2021/10/05 08:55:47;;;;;;;21.27;16.83;;;;;;;11.45;100.00;95296.16;1025079;28;20595;-77
2021/10/05 08:56:17;;;;;;;23.45;17.13;;;;;;;11.43;100.00;95291.16;1019787;29;20108;-76
2021/10/05 08:56:48;;;;;;;24.52;17.75;;;;;;;11.23;100.00;95267.72;1021771;28;20257;-82
2021/10/05 08:57:19;;;;;;;27.50;18.70;;;;;;;11.41;100.00;95295.94;1019060;29;20040;-78
2021/10/05 08:57:49;;;;;;;23.20;17.00;;;;;;;11.42;100.00;95301.97;1020292;28;20019;-76
2021/10/05 08:58:20;;;;;;;23.92;16.45;;;;;;;11.51;100.00;95302.94;1022102;28;20043;-76
2021/10/05 08:58:50;;;;;;;24.38;17.63;;;;;;;11.53;100.00;95291.06;1021238;28;20537;-78
2021/10/05 08:59:21;;;;;;;25.00;17.55;;;;;;;11.66;100.00;95294.09;1011441;29;20024;-76
2021/10/05 08:59:54;;;;;;;18.58;14.63;;;;;;;11.63;100.00;95287.53;1013354;29;20020;-79
2021/10/05 09:00:32;;;;;;;20.90;15.23;;;;;;;11.66;100.00;95281.72;1018235;29;20875;-78
2021/10/05 09:01:07;;;;;;;18.42;14.18;;;;;;;11.81;100.00;95286.03;1019844;28;20055;-76
2021/10/05 09:01:38;;;;;;;27.23;16.38;;;;;;;11.83;100.00;95304.16;1023963;28;20317;-78
2021/10/05 09:02:16;;;;;;;19.73;14.02;;;;;;;11.80;100.00;95285.25;1018533;29;20275;-75
2021/10/05 09:02:51;;;;;;;19.45;14.85;;;;;;;11.97;100.00;95290.09;1017817;29;20019;-78
2021/10/05 09:03:23;;;;;;;20.85;15.82;;;;;;;11.79;100.00;95270.53;1018060;29;20467;-77
2021/10/05 09:03:54;;;;;;;18.40;14.40;;;;;;;11.80;100.00;95279.19;1009907;29;20299;-77
2021/10/05 09:04:25;;;;;;;17.00;14.10;;;;;;;11.90;100.00;95296.72;1022073;29;20255;-78
2021/10/05 09:04:56;;;;;;;26.25;15.18;;;;;;;11.89;100.00;95284.66;1020805;29;20655;-77
2021/10/05 09:05:26;;;;;;;17.52;13.27;;;;;;;12.07;100.00;95296.25;1019300;29;20486;-78
2021/10/05 09:05:57;;;;;;;19.92;14.52;;;;;;;12.15;100.00;95293.00;1026124;28;20345;-76
2021/10/05 09:06:27;;;;;;;19.52;14.32;;;;;;;12.16;100.00;95294.56;1021157;28;20055;-77
2021/10/05 09:06:58;;;;;;;18.10;13.85;;;;;;;12.18;100.00;95287.19;1018115;29;20054;-76
2021/10/05 09:07:28;;;;;;;20.38;15.88;;;;;;;12.23;100.00;95280.00;1014100;29;20102;-79
2021/10/05 09:07:59;;;;;;;17.13;12.23;;;;;;;12.24;100.00;95286.06;1017620;29;20016;-78
2021/10/05 09:08:32;;;;;;;17.33;13.20;;;;;;;12.27;100.00;95274.94;1024068;28;20032;-76